Time;durP1;ratioP1;P1;durP2;ratioP2;P2;SDS_P1;SDS_P2;PMS_P1;PMS_P2;Temp;Humidity;BMP_temperature;BMP_pressure;BME280_temperature;BME280_humidity;BME280_pressure;Samples;Min_cycle;Max_cycle;Signal;HPM_P1;HPM_P2
2023/01/23 00:01:41;;;;;;;;;;;4.20;99.90;;;;;;5066492;28;1109;-73
2023/01/23 00:04:12;;;;;;;;;;;4.10;99.90;;;;;;5066466;28;1910;-73
2023/01/23 00:06:40;;;;;;;;;;;4.10;99.90;;;;;;5065775;28;1920;-73
2023/01/23 00:09:08;;;;;;;;;;;4.10;99.90;;;;;;5065447;28;1481;-73
2023/01/23 00:11:36;;;;;;;;;;;4.10;99.90;;;;;;5059810;28;1638;-74
2023/01/23 00:14:03;;;;;;;;;;;4.10;99.90;;;;;;5068785;28;1340;-74
2023/01/23 00:16:34;;;;;;;;;;;4.00;99.90;;;;;;5063388;28;1198;-74
2023/01/23 00:19:02;;;;;;;;;;;4.10;99.90;;;;;;5064174;28;2082;-73
2023/01/23 00:21:30;;;;;;;;;;;4.10;99.90;;;;;;5061399;28;1115;-75
2023/01/23 00:23:58;;;;;;;;;;;4.20;99.90;;;;;;5064531;28;1910;-73
2023/01/23 00:26:27;;;;;;;;;;;4.30;99.90;;;;;;5064486;28;1259;-72
2023/01/23 00:28:55;;;;;;;;;;;4.20;99.90;;;;;;5066470;28;977;-73
2023/01/23 00:31:24;;;;;;;;;;;4.10;99.90;;;;;;5068771;28;1606;-73
2023/01/23 00:33:54;;;;;;;;;;;4.30;99.90;;;;;;5065465;28;1038;-73
2023/01/23 00:36:22;;;;;;;;;;;4.20;99.90;;;;;;5068975;28;1697;-73
2023/01/23 00:38:49;;;;;;;;;;;4.20;99.90;;;;;;5065325;28;1025;-73
2023/01/23 00:41:17;;;;;;;;;;;4.20;99.90;;;;;;5063413;28;1175;-73
2023/01/23 00:43:45;;;;;;;;;;;4.20;99.90;;;;;;5067443;28;1926;-73
2023/01/23 00:46:13;;;;;;;;;;;4.30;99.90;;;;;;5065140;28;1295;-73
2023/01/23 00:48:41;;;;;;;;;;;4.40;99.90;;;;;;5068407;28;1084;-74
2023/01/23 00:51:10;;;;;;;;;;;4.20;99.90;;;;;;5065730;28;2141;-73
2023/01/23 00:53:38;;;;;;;;;;;4.40;99.90;;;;;;5057377;28;1004;-73
2023/01/23 00:56:06;;;;;;;;;;;4.30;99.90;;;;;;5069160;28;1355;-73
2023/01/23 00:58:34;;;;;;;;;;;4.30;99.90;;;;;;5062997;28;1041;-73
2023/01/23 01:01:08;;;;;;;;;;;4.30;99.90;;;;;;5058786;28;1379;-72
2023/01/23 01:03:36;;;;;;;;;;;4.50;99.90;;;;;;5063898;28;1984;-73
2023/01/23 01:06:04;;;;;;;;;;;4.20;99.90;;;;;;5064701;28;1747;-72
2023/01/23 01:08:33;;;;;;;;;;;4.10;99.90;;;;;;5064531;28;1554;-73
2023/01/23 01:11:01;;;;;;;;;;;4.10;99.90;;;;;;5059991;28;1093;-73
2023/01/23 01:13:30;;;;;;;;;;;4.10;99.90;;;;;;5064111;28;1336;-72
2023/01/23 01:16:00;;;;;;;;;;;4.20;99.90;;;;;;5073667;28;1417;-72
2023/01/23 01:18:30;;;;;;;;;;;4.00;99.90;;;;;;5065062;28;1072;-72
2023/01/23 01:20:58;;;;;;;;;;;4.00;99.90;;;;;;5064450;28;1100;-72
2023/01/23 01:23:27;;;;;;;;;;;3.80;99.90;;;;;;5062754;28;1911;-75
2023/01/23 01:25:59;;;;;;;;;;;3.90;99.90;;;;;;5062504;28;1260;-72
2023/01/23 01:28:30;;;;;;;;;;;4.00;99.90;;;;;;5058621;28;1057;-73
2023/01/23 01:30:57;;;;;;;;;;;3.70;99.90;;;;;;5060088;28;1267;-75
2023/01/23 01:33:33;;;;;;;;;;;3.70;99.90;;;;;;5059175;28;1025;-74
2023/01/23 01:36:01;;;;;;;;;;;3.60;99.90;;;;;;5060831;28;1434;-73
2023/01/23 01:38:28;;;;;;;;;;;3.70;99.90;;;;;;5071647;28;1116;-73
2023/01/23 01:40:56;;;;;;;;;;;3.70;99.90;;;;;;5071294;28;1728;-73
2023/01/23 01:43:26;;;;;;;;;;;3.60;99.90;;;;;;5065408;28;1100;-73
2023/01/23 01:46:05;;;;;;;;;;;3.80;99.90;;;;;;5065119;28;1981;-73
2023/01/23 01:48:36;;;;;;;;;;;3.50;99.90;;;;;;5063338;28;1092;-73
2023/01/23 01:51:07;;;;;;;;;;;3.60;99.90;;;;;;5065180;28;1040;-72
2023/01/23 01:53:36;;;;;;;;;;;3.50;99.90;;;;;;5064486;28;998;-72
2023/01/23 01:56:05;;;;;;;;;;;3.40;99.90;;;;;;5064428;28;1676;-72
2023/01/23 01:58:34;;;;;;;;;;;3.60;99.90;;;;;;5058750;28;1740;-73
2023/01/23 02:01:02;;;;;;;;;;;3.60;99.90;;;;;;5062331;28;1027;-72
2023/01/23 02:03:30;;;;;;;;;;;3.50;99.90;;;;;;5056934;28;1519;-73
2023/01/23 02:05:57;;;;;;;;;;;3.60;99.90;;;;;;5063871;28;1965;-73
2023/01/23 02:08:27;;;;;;;;;;;3.50;99.90;;;;;;5060927;28;1426;-72
2023/01/23 02:10:54;;;;;;;;;;;3.60;99.90;;;;;;5065343;28;1077;-72
2023/01/23 02:13:24;;;;;;;;;;;3.50;99.90;;;;;;5068159;28;1086;-73
2023/01/23 02:15:53;;;;;;;;;;;3.40;99.90;;;;;;5059169;28;1334;-74
2023/01/23 02:18:21;;;;;;;;;;;3.40;99.90;;;;;;5067299;28;1012;-74
2023/01/23 02:20:52;;;;;;;;;;;3.40;99.90;;;;;;5063929;28;1110;-74
2023/01/23 02:23:22;;;;;;;;;;;3.40;99.90;;;;;;5063871;28;1141;-74
2023/01/23 02:25:54;;;;;;;;;;;3.20;99.90;;;;;;5063377;28;1906;-73
2023/01/23 02:28:22;;;;;;;;;;;3.30;99.90;;;;;;5060806;28;1075;-73
2023/01/23 02:30:50;;;;;;;;;;;3.40;99.90;;;;;;5061096;28;1212;-73
2023/01/23 02:33:36;;;;;;;;;;;3.50;99.90;;;;;;5059605;28;1073;-73
2023/01/23 02:36:05;;;;;;;;;;;3.60;99.90;;;;;;5061621;28;1357;-73
2023/01/23 02:38:35;;;;;;;;;;;3.40;99.90;;;;;;5062177;28;1139;-73
2023/01/23 02:41:05;;;;;;;;;;;3.50;99.90;;;;;;5070180;28;1316;-73
2023/01/23 02:43:35;;;;;;;;;;;3.70;99.90;;;;;;5063686;28;1532;-73
2023/01/23 02:46:03;;;;;;;;;;;3.60;99.90;;;;;;5065758;28;1914;-74
2023/01/23 02:48:31;;;;;;;;;;;3.70;99.90;;;;;;5068556;28;1047;-75
2023/01/23 02:51:00;;;;;;;;;;;3.70;99.90;;;;;;5065455;28;1029;-74
2023/01/23 02:53:29;;;;;;;;;;;3.60;99.90;;;;;;5067748;28;1088;-74
2023/01/23 02:56:00;;;;;;;;;;;3.40;99.90;;;;;;5072285;28;1250;-74
2023/01/23 03:01:14;;;;;;;;;;;3.50;99.90;;;;;;5059674;28;1021;-73
2023/01/23 03:03:42;;;;;;;;;;;3.50;99.90;;;;;;5065210;28;1080;-73
2023/01/23 03:06:10;;;;;;;;;;;3.40;99.90;;;;;;5067476;28;1887;-73
2023/01/23 03:09:02;;;;;;;;;;;3.30;99.90;;;;;;5070921;28;1155;-73
2023/01/23 03:11:29;;;;;;;;;;;3.40;99.90;;;;;;5061955;28;1080;-73
2023/01/23 03:13:58;;;;;;;;;;;3.30;99.90;;;;;;5065861;28;1427;-73
2023/01/23 03:16:27;;;;;;;;;;;3.30;99.90;;;;;;5065095;28;1272;-72
2023/01/23 03:18:56;;;;;;;;;;;3.10;99.90;;;;;;5065930;28;1701;-71
2023/01/23 03:21:23;;;;;;;;;;;3.10;99.90;;;;;;5062442;28;1108;-72
2023/01/23 03:23:51;;;;;;;;;;;3.10;99.90;;;;;;5066892;28;1543;-73
2023/01/23 03:26:19;;;;;;;;;;;3.10;99.90;;;;;;5071832;28;1993;-73
2023/01/23 03:31:33;;;;;;;;;;;3.20;99.90;;;;;;5066574;28;1355;-73
2023/01/23 03:34:01;;;;;;;;;;;3.30;99.90;;;;;;5068087;28;1678;-73
2023/01/23 03:36:28;;;;;;;;;;;3.10;99.90;;;;;;5072572;28;1188;-73
2023/01/23 03:41:44;;;;;;;;;;;3.30;99.90;;;;;;5062976;28;1086;-73
2023/01/23 03:44:12;;;;;;;;;;;3.30;99.90;;;;;;5067680;28;1562;-73
2023/01/23 03:46:41;;;;;;;;;;;3.50;99.90;;;;;;5063126;28;1890;-72
2023/01/23 03:49:08;;;;;;;;;;;3.40;99.90;;;;;;5070086;28;1434;-72
2023/01/23 03:51:36;;;;;;;;;;;3.40;99.90;;;;;;5067231;28;1040;-72
2023/01/23 03:54:03;;;;;;;;;;;3.50;99.90;;;;;;5061548;28;1109;-73
2023/01/23 03:56:31;;;;;;;;;;;3.30;99.90;;;;;;5067718;28;1909;-72
2023/01/23 03:59:07;;;;;;;;;;;3.40;99.90;;;;;;5067423;28;1001;-72
2023/01/23 04:01:35;;;;;;;;;;;3.30;99.90;;;;;;5071489;28;1016;-72
2023/01/23 04:04:05;;;;;;;;;;;3.20;99.90;;;;;;5066324;28;949;-72
2023/01/23 04:06:33;;;;;;;;;;;3.20;99.90;;;;;;5061801;28;1989;-73
2023/01/23 04:09:03;;;;;;;;;;;3.10;99.90;;;;;;5069620;28;1068;-73
2023/01/23 04:11:30;;;;;;;;;;;3.20;99.90;;;;;;5067352;28;977;-73
2023/01/23 04:13:58;;;;;;;;;;;3.50;99.90;;;;;;5060408;28;1025;-74
2023/01/23 04:16:27;;;;;;;;;;;3.20;99.90;;;;;;5065368;28;1713;-74
2023/01/23 04:18:55;;;;;;;;;;;3.20;99.90;;;;;;5066216;28;1032;-73
2023/01/23 04:21:24;;;;;;;;;;;3.20;99.90;;;;;;5061175;28;1486;-73
2023/01/23 04:23:52;;;;;;;;;;;3.20;99.90;;;;;;5064426;28;1173;-73
2023/01/23 04:26:19;;;;;;;;;;;3.20;99.90;;;;;;5066019;28;2008;-73
2023/01/23 04:28:47;;;;;;;;;;;3.20;99.90;;;;;;5062184;28;957;-73
2023/01/23 04:31:20;;;;;;;;;;;3.20;99.90;;;;;;5064756;28;1005;-73
2023/01/23 04:33:48;;;;;;;;;;;3.20;99.90;;;;;;5062302;28;1009;-73
2023/01/23 04:36:25;;;;;;;;;;;3.20;99.90;;;;;;5062802;28;1294;-74
2023/01/23 04:38:53;;;;;;;;;;;3.10;99.90;;;;;;5064978;28;977;-73
2023/01/23 04:41:23;;;;;;;;;;;3.10;99.90;;;;;;5066996;28;989;-73
2023/01/23 04:43:50;;;;;;;;;;;3.20;99.90;;;;;;5058959;28;1368;-73
2023/01/23 04:46:18;;;;;;;;;;;3.20;99.90;;;;;;5065326;28;2009;-73
2023/01/23 04:48:47;;;;;;;;;;;3.10;99.90;;;;;;5062955;28;1489;-73
2023/01/23 04:51:15;;;;;;;;;;;3.40;99.90;;;;;;5063949;28;1175;-73
2023/01/23 04:53:44;;;;;;;;;;;3.20;99.90;;;;;;5057210;28;1160;-73
2023/01/23 04:56:12;;;;;;;;;;;3.20;99.90;;;;;;5069858;28;1375;-73
2023/01/23 04:58:39;;;;;;;;;;;3.10;99.90;;;;;;5067918;28;889;-72
2023/01/23 05:01:07;;;;;;;;;;;3.10;99.90;;;;;;5056246;28;914;-73
2023/01/23 05:03:36;;;;;;;;;;;3.20;99.90;;;;;;5065573;28;1512;-73
2023/01/23 05:06:04;;;;;;;;;;;3.30;99.90;;;;;;5063563;28;1910;-73
2023/01/23 05:08:32;;;;;;;;;;;3.20;99.90;;;;;;5066680;28;1710;-72
2023/01/23 05:11:01;;;;;;;;;;;3.20;99.90;;;;;;5063705;28;1148;-72
2023/01/23 05:13:29;;;;;;;;;;;3.10;99.90;;;;;;5069637;28;1044;-72
2023/01/23 05:15:57;;;;;;;;;;;3.20;99.90;;;;;;5075228;28;1546;-72
2023/01/23 05:18:32;;;;;;;;;;;3.20;99.90;;;;;;5080696;28;1536;-73
2023/01/23 05:20:59;;;;;;;;;;;3.20;99.90;;;;;;5085352;28;1134;-73
2023/01/23 05:23:27;;;;;;;;;;;3.10;99.90;;;;;;5076319;28;1602;-71
2023/01/23 05:25:54;;;;;;;;;;;3.20;99.90;;;;;;5084961;28;1890;-74
2023/01/23 05:28:23;;;;;;;;;;;3.10;99.90;;;;;;5087265;28;1531;-73
2023/01/23 05:30:51;;;;;;;;;;;3.20;99.90;;;;;;5080759;28;1724;-72
2023/01/23 05:33:19;;;;;;;;;;;3.10;99.90;;;;;;5081899;28;1145;-71
2023/01/23 05:35:46;;;;;;;;;;;3.10;99.90;;;;;;5086388;28;1311;-71
2023/01/23 05:38:14;;;;;;;;;;;3.10;99.90;;;;;;5080184;28;1139;-71
2023/01/23 05:40:41;;;;;;;;;;;3.10;99.90;;;;;;5075118;28;1906;-72
2023/01/23 05:43:11;;;;;;;;;;;3.30;99.90;;;;;;5092466;28;1104;-72
2023/01/23 05:45:40;;;;;;;;;;;3.20;99.90;;;;;;5086643;28;1291;-71
2023/01/23 05:48:08;;;;;;;;;;;3.10;99.90;;;;;;5083841;28;1910;-71
2023/01/23 05:50:36;;;;;;;;;;;3.10;99.90;;;;;;5086763;28;1068;-71
2023/01/23 05:53:04;;;;;;;;;;;3.10;99.90;;;;;;5080766;28;1176;-73
2023/01/23 05:55:31;;;;;;;;;;;3.00;99.90;;;;;;5073827;28;1295;-73
2023/01/23 05:57:59;;;;;;;;;;;3.10;99.90;;;;;;5085626;28;1054;-72
2023/01/23 06:00:29;;;;;;;;;;;3.00;99.90;;;;;;5085278;28;1088;-72
2023/01/23 06:02:58;;;;;;;;;;;3.10;99.90;;;;;;5080689;28;1108;-71
2023/01/23 06:05:30;;;;;;;;;;;3.20;99.90;;;;;;5079268;28;1413;-72
2023/01/23 06:07:58;;;;;;;;;;;3.20;99.90;;;;;;5078054;28;1890;-72
2023/01/23 06:10:26;;;;;;;;;;;3.20;99.90;;;;;;5075591;28;1344;-72
2023/01/23 06:12:53;;;;;;;;;;;3.10;99.90;;;;;;5079027;28;1369;-72
2023/01/23 06:15:24;;;;;;;;;;;3.20;99.90;;;;;;5077210;28;1376;-72
2023/01/23 06:18:04;;;;;;;;;;;3.20;99.90;;;;;;5086726;28;1041;-72
2023/01/23 06:20:31;;;;;;;;;;;3.30;99.90;;;;;;5090640;28;1249;-72
2023/01/23 06:22:59;;;;;;;;;;;3.30;99.90;;;;;;5086085;28;1182;-73
2023/01/23 06:25:30;;;;;;;;;;;3.40;99.90;;;;;;5097139;28;1387;-73
2023/01/23 06:27:57;;;;;;;;;;;3.50;99.90;;;;;;5100889;28;1981;-72
2023/01/23 06:30:25;;;;;;;;;;;3.50;99.90;;;;;;5083732;28;1150;-71
2023/01/23 06:32:53;;;;;;;;;;;3.40;99.90;;;;;;5089249;28;1902;-73
2023/01/23 06:35:22;;;;;;;;;;;3.50;99.90;;;;;;5091492;28;1312;-74
2023/01/23 06:37:56;;;;;;;;;;;3.30;99.90;;;;;;5082964;28;1096;-73
2023/01/23 06:40:24;;;;;;;;;;;3.30;99.90;;;;;;5081705;28;1523;-73
2023/01/23 06:42:54;;;;;;;;;;;3.20;99.90;;;;;;5095455;28;1135;-73
2023/01/23 06:45:21;;;;;;;;;;;3.20;99.90;;;;;;5084910;28;1460;-73
2023/01/23 06:47:51;;;;;;;;;;;3.10;99.90;;;;;;5090606;28;1969;-74
2023/01/23 06:50:21;;;;;;;;;;;3.10;99.90;;;;;;5085206;28;1745;-76
2023/01/23 06:52:49;;;;;;;;;;;3.00;99.90;;;;;;5081689;28;1056;-76
2023/01/23 06:55:17;;;;;;;;;;;3.00;99.90;;;;;;5078859;28;1685;-76
2023/01/23 06:57:45;;;;;;;;;;;2.90;99.90;;;;;;5087979;28;1156;-74
2023/01/23 07:00:38;;;;;;;;;;;3.10;99.90;;;;;;5068801;28;1661;-73
2023/01/23 07:03:11;;;;;;;;;;;3.30;99.90;;;;;;5076357;28;1323;-74
2023/01/23 07:05:51;;;;;;;;;;;3.20;99.90;;;;;;5070505;28;1698;-73
2023/01/23 07:08:18;;;;;;;;;;;3.20;99.90;;;;;;5070526;28;2001;-72
2023/01/23 07:10:49;;;;;;;;;;;3.20;99.90;;;;;;5071220;28;1087;-73
2023/01/23 07:13:17;;;;;;;;;;;3.30;99.90;;;;;;5077202;28;1025;-73
2023/01/23 07:15:48;;;;;;;;;;;3.30;99.90;;;;;;5071319;28;1642;-73
2023/01/23 07:18:16;;;;;;;;;;;3.40;99.90;;;;;;5068711;28;1772;-74
2023/01/23 07:20:44;;;;;;;;;;;3.40;99.90;;;;;;5065083;28;1169;-73
2023/01/23 07:23:17;;;;;;;;;;;3.40;99.90;;;;;;5065181;28;1565;-73
2023/01/23 07:25:47;;;;;;;;;;;3.50;99.90;;;;;;5062190;28;1476;-73
2023/01/23 07:28:16;;;;;;;;;;;3.50;99.90;;;;;;5062268;28;1922;-72
2023/01/23 07:30:50;;;;;;;;;;;3.50;99.90;;;;;;5061699;28;1158;-73
2023/01/23 07:33:17;;;;;;;;;;;3.60;99.90;;;;;;5061281;28;1597;-76
2023/01/23 07:36:01;;;;;;;;;;;3.70;99.90;;;;;;5063662;28;1386;-73
2023/01/23 07:38:40;;;;;;;;;;;3.80;99.90;;;;;;5069093;28;1714;-73
2023/01/23 07:41:12;;;;;;;;;;;3.70;99.90;;;;;;5072442;28;1554;-73
2023/01/23 07:43:43;;;;;;;;;;;3.80;99.90;;;;;;5070312;28;1719;-72
2023/01/23 07:46:12;;;;;;;;;;;3.60;99.90;;;;;;5069229;28;1338;-72
2023/01/23 07:48:43;;;;;;;;;;;3.50;99.90;;;;;;5065829;28;1983;-73
2023/01/23 07:51:11;;;;;;;;;;;3.50;99.90;;;;;;5061999;28;1107;-72
2023/01/23 07:53:40;;;;;;;;;;;3.50;99.90;;;;;;5066142;28;1071;-72
2023/01/23 07:56:08;;;;;;;;;;;3.70;99.90;;;;;;5065995;28;1561;-74
2023/01/23 07:58:36;;;;;;;;;;;3.70;99.90;;;;;;5058791;28;1693;-74
2023/01/23 08:01:07;;;;;;;;;;;3.70;99.90;;;;;;5056882;28;1246;-74
2023/01/23 08:03:35;;;;;;;;;;;3.60;99.90;;;;;;5066426;28;1537;-73
2023/01/23 08:06:03;;;;;;;;;;;3.50;99.90;;;;;;5066060;28;1502;-72
2023/01/23 08:08:31;;;;;;;;;;;3.80;99.90;;;;;;5069954;28;1984;-73
2023/01/23 08:11:02;;;;;;;;;;;3.90;99.90;;;;;;5065675;28;1136;-74
2023/01/23 08:13:30;;;;;;;;;;;3.90;99.90;;;;;;5068605;28;2007;-72
2023/01/23 08:15:58;;;;;;;;;;;3.90;99.90;;;;;;5067753;28;1351;-72
2023/01/23 08:18:26;;;;;;;;;;;3.90;99.90;;;;;;5060545;28;1088;-73
2023/01/23 08:20:54;;;;;;;;;;;3.90;99.90;;;;;;5060598;28;1526;-73
2023/01/23 08:23:24;;;;;;;;;;;3.90;99.90;;;;;;5066307;28;1093;-72
2023/01/23 08:25:52;;;;;;;;;;;3.80;99.90;;;;;;5063918;28;1322;-72
2023/01/23 08:28:22;;;;;;;;;;;3.80;99.90;;;;;;5064095;28;1892;-71
2023/01/23 08:30:52;;;;;;;;;;;3.90;99.90;;;;;;5066356;28;1128;-72
2023/01/23 08:33:21;;;;;;;;;;;3.80;99.90;;;;;;5065777;28;1184;-72
2023/01/23 08:35:50;;;;;;;;;;;3.80;99.90;;;;;;5067083;28;1630;-71
2023/01/23 08:38:18;;;;;;;;;;;4.00;99.90;;;;;;5064590;28;1680;-72
2023/01/23 08:40:47;;;;;;;;;;;4.00;99.90;;;;;;5065819;28;1048;-72
2023/01/23 08:43:16;;;;;;;;;;;3.90;99.90;;;;;;5063053;28;1132;-72
2023/01/23 08:45:48;;;;;;;;;;;4.00;99.90;;;;;;5065052;28;1347;-72
2023/01/23 08:48:16;;;;;;;;;;;3.80;99.90;;;;;;5061154;28;1902;-71
2023/01/23 08:50:45;;;;;;;;;;;3.80;99.90;;;;;;5063019;28;1101;-72
2023/01/23 08:53:13;;;;;;;;;;;3.70;99.90;;;;;;5069211;28;1113;-73
2023/01/23 08:55:41;;;;;;;;;;;3.80;99.90;;;;;;5064551;28;1417;-72
2023/01/23 08:58:11;;;;;;;;;;;3.90;99.90;;;;;;5061094;28;1680;-71
2023/01/23 09:00:40;;;;;;;;;;;3.80;99.90;;;;;;5065746;28;1450;-72
2023/01/23 09:03:09;;;;;;;;;;;3.80;99.90;;;;;;5067109;28;1559;-72
2023/01/23 09:05:40;;;;;;;;;;;3.90;99.90;;;;;;5063624;28;1656;-72
2023/01/23 09:08:08;;;;;;;;;;;3.90;99.90;;;;;;5066088;28;1993;-72
2023/01/23 09:10:36;;;;;;;;;;;4.00;99.90;;;;;;5064338;28;1222;-72
2023/01/23 09:13:04;;;;;;;;;;;4.30;99.90;;;;;;5065160;28;1025;-72
2023/01/23 09:15:31;;;;;;;;;;;4.10;99.90;;;;;;5063547;28;1280;-71
2023/01/23 09:17:59;;;;;;;;;;;3.90;99.90;;;;;;5069196;28;1017;-72
2023/01/23 09:20:28;;;;;;;;;;;4.30;99.90;;;;;;5063937;28;1722;-72
2023/01/23 09:22:56;;;;;;;;;;;4.30;99.90;;;;;;5062481;28;1665;-73
2023/01/23 09:25:24;;;;;;;;;;;4.30;99.90;;;;;;5067075;28;1300;-73
2023/01/23 09:27:59;;;;;;;;;;;4.20;99.90;;;;;;5070573;28;1989;-72
2023/01/23 09:30:27;;;;;;;;;;;4.30;99.90;;;;;;5067167;28;1197;-73
2023/01/23 09:32:55;;;;;;;;;;;4.30;99.90;;;;;;5070004;28;1140;-73
2023/01/23 09:35:23;;;;;;;;;;;4.30;99.90;;;;;;5066137;28;1253;-72
2023/01/23 09:38:03;;;;;;;;;;;4.20;99.90;;;;;;5066356;28;1089;-72
2023/01/23 09:40:33;;;;;;;;;;;4.50;99.90;;;;;;5062364;28;1092;-72
2023/01/23 09:43:03;;;;;;;;;;;4.40;99.90;;;;;;5063375;28;1046;-72
2023/01/23 09:45:32;;;;;;;;;;;4.50;99.90;;;;;;5070522;28;1465;-72
2023/01/23 09:48:06;;;;;;;;;;;4.50;99.90;;;;;;5065075;28;1887;-71
2023/01/23 09:50:36;;;;;;;;;;;4.40;99.90;;;;;;5065859;28;1083;-73
2023/01/23 09:53:11;;;;;;;;;;;4.60;99.90;;;;;;5062113;28;1146;-73
2023/01/23 09:55:41;;;;;;;;;;;4.80;99.90;;;;;;5065989;28;1465;-73
2023/01/23 09:58:15;;;;;;;;;;;4.90;99.90;;;;;;5062126;28;1541;-74
2023/01/23 10:00:43;;;;;;;;;;;4.90;99.90;;;;;;5061767;28;1112;-73
2023/01/23 10:03:16;;;;;;;;;;;4.80;99.90;;;;;;5062393;28;1182;-73
2023/01/23 10:05:50;;;;;;;;;;;4.80;99.90;;;;;;5065759;28;1304;-73
2023/01/23 10:08:23;;;;;;;;;;;4.60;99.90;;;;;;5062171;28;1918;-75
2023/01/23 10:10:57;;;;;;;;;;;4.70;99.90;;;;;;5060301;28;2095;-74
2023/01/23 10:13:33;;;;;;;;;;;4.70;99.90;;;;;;5060582;28;1057;-73
2023/01/23 10:16:08;;;;;;;;;;;5.00;99.90;;;;;;5060982;28;1241;-73
2023/01/23 10:18:39;;;;;;;;;;;4.70;99.90;;;;;;5060226;28;997;-73
2023/01/23 10:21:13;;;;;;;;;;;4.90;99.90;;;;;;5063631;28;1461;-74
2023/01/23 10:23:46;;;;;;;;;;;4.90;99.90;;;;;;5065169;28;1171;-73
2023/01/23 10:26:16;;;;;;;;;;;4.90;99.90;;;;;;5064270;28;1321;-73
2023/01/23 10:28:44;;;;;;;;;;;5.00;99.90;;;;;;5062444;28;1918;-72
2023/01/23 10:31:13;;;;;;;;;;;5.00;99.90;;;;;;5062611;28;1271;-73
2023/01/23 10:33:45;;;;;;;;;;;4.90;99.90;;;;;;5063252;28;1105;-73
2023/01/23 10:36:25;;;;;;;;;;;5.10;99.90;;;;;;5066125;28;1424;-73
2023/01/23 10:38:57;;;;;;;;;;;4.60;99.90;;;;;;5060377;28;1117;-73
2023/01/23 10:41:25;;;;;;;;;;;4.80;99.90;;;;;;5060810;28;1594;-73
2023/01/23 10:43:56;;;;;;;;;;;4.80;99.90;;;;;;5061366;28;1119;-74
2023/01/23 10:46:29;;;;;;;;;;;4.90;99.90;;;;;;5063184;28;1338;-74
2023/01/23 10:48:58;;;;;;;;;;;4.90;99.90;;;;;;5064871;28;1906;-75
2023/01/23 10:51:34;;;;;;;;;;;4.80;99.90;;;;;;5061956;28;1696;-74
2023/01/23 10:54:19;;;;;;;;;;;5.00;99.90;;;;;;5062279;28;1120;-75
2023/01/23 10:57:02;;;;;;;;;;;5.00;99.90;;;;;;5062897;28;1001;-75
2023/01/23 10:59:32;;;;;;;;;;;5.10;99.90;;;;;;5062525;28;1708;-75
2023/01/23 11:02:01;;;;;;;;;;;5.20;99.90;;;;;;5066135;28;1576;-73
2023/01/23 11:04:30;;;;;;;;;;;5.20;99.90;;;;;;5066938;28;1291;-75
2023/01/23 11:07:02;;;;;;;;;;;5.20;99.90;;;;;;5067462;28;1096;-75
2023/01/23 11:09:30;;;;;;;;;;;5.10;99.90;;;;;;5066828;28;1886;-75
2023/01/23 11:12:03;;;;;;;;;;;5.20;99.90;;;;;;5064757;28;1022;-77
2023/01/23 11:14:32;;;;;;;;;;;5.20;99.90;;;;;;5065870;28;1357;-76
2023/01/23 11:17:03;;;;;;;;;;;5.20;99.90;;;;;;5064791;28;1102;-75
2023/01/23 11:19:39;;;;;;;;;;;5.20;99.90;;;;;;5061841;28;1182;-76
2023/01/23 11:22:22;;;;;;;;;;;5.40;99.90;;;;;;5061699;28;1177;-75
2023/01/23 11:24:50;;;;;;;;;;;5.40;99.90;;;;;;5064208;28;1363;-75
2023/01/23 11:27:23;;;;;;;;;;;5.40;99.90;;;;;;5062777;28;1348;-76
2023/01/23 11:30:00;;;;;;;;;;;5.30;99.90;;;;;;5060483;28;2011;-75
2023/01/23 11:32:33;;;;;;;;;;;5.40;99.90;;;;;;5060099;28;1515;-75
2023/01/23 11:35:05;;;;;;;;;;;5.40;99.90;;;;;;5067232;28;1457;-76
2023/01/23 11:37:37;;;;;;;;;;;5.30;99.90;;;;;;5068887;28;1300;-75
2023/01/23 11:40:07;;;;;;;;;;;5.50;99.90;;;;;;5061705;28;1102;-75
2023/01/23 11:42:39;;;;;;;;;;;5.70;99.90;;;;;;5060593;28;1333;-75
2023/01/23 11:45:12;;;;;;;;;;;5.50;99.90;;;;;;5063861;28;1310;-75
2023/01/23 11:47:48;;;;;;;;;;;5.30;99.90;;;;;;5067260;28;1435;-73
2023/01/23 11:50:21;;;;;;;;;;;5.50;99.90;;;;;;5067657;28;1987;-74
2023/01/23 11:53:00;;;;;;;;;;;5.40;99.90;;;;;;5058275;28;1747;-74
2023/01/23 11:55:47;;;;;;;;;;;5.40;99.90;;;;;;5059492;28;1341;-73
2023/01/23 11:58:21;;;;;;;;;;;5.50;99.90;;;;;;5064643;28;1085;-75
2023/01/23 12:00:55;;;;;;;;;;;5.20;99.90;;;;;;5066430;28;1395;-74
2023/01/23 12:03:33;;;;;;;;;;;5.30;99.90;;;;;;5069311;28;1755;-74
2023/01/23 12:06:11;;;;;;;;;;;5.50;99.90;;;;;;5066748;28;1626;-73
2023/01/23 12:08:50;;;;;;;;;;;5.30;99.90;;;;;;5065821;28;1057;-74
2023/01/23 12:11:23;;;;;;;;;;;5.30;99.90;;;;;;5063039;28;1989;-75
2023/01/23 12:14:02;;;;;;;;;;;5.40;99.90;;;;;;5062876;28;1112;-74
2023/01/23 12:16:37;;;;;;;;;;;5.70;99.90;;;;;;5063088;28;1433;-75
2023/01/23 12:19:13;;;;;;;;;;;5.80;99.90;;;;;;5066874;28;985;-74
2023/01/23 12:21:47;;;;;;;;;;;5.70;99.90;;;;;;5069210;28;1103;-75
2023/01/23 12:24:18;;;;;;;;;;;5.40;99.90;;;;;;5068719;28;1566;-75
2023/01/23 12:26:54;;;;;;;;;;;5.30;99.90;;;;;;5069380;28;1517;-74
2023/01/23 12:29:36;;;;;;;;;;;5.40;99.90;;;;;;5065716;28;1064;-73
2023/01/23 12:32:15;;;;;;;;;;;5.30;99.90;;;;;;5064637;28;1129;-73
2023/01/23 12:34:51;;;;;;;;;;;5.20;99.90;;;;;;5063648;28;1438;-73
2023/01/23 12:37:25;;;;;;;;;;;5.10;99.90;;;;;;5058601;28;1680;-74
2023/01/23 12:39:59;;;;;;;;;;;5.10;99.90;;;;;;5058465;28;1559;-74
2023/01/23 12:42:30;;;;;;;;;;;5.00;99.90;;;;;;5062806;28;1750;-73
2023/01/23 12:45:02;;;;;;;;;;;5.10;99.90;;;;;;5056614;28;1676;-73
2023/01/23 12:47:34;;;;;;;;;;;5.10;99.90;;;;;;5063643;28;1475;-74
2023/01/23 12:50:03;;;;;;;;;;;5.20;99.90;;;;;;5061477;28;1990;-74
2023/01/23 12:52:34;;;;;;;;;;;5.20;99.90;;;;;;5058849;28;1573;-74
2023/01/23 12:55:03;;;;;;;;;;;5.10;99.90;;;;;;5065211;28;1361;-74
2023/01/23 12:57:42;;;;;;;;;;;5.20;99.90;;;;;;5062593;28;994;-74
2023/01/23 13:00:35;;;;;;;;;;;5.20;99.90;;;;;;5059441;28;1720;-73
2023/01/23 13:03:09;;;;;;;;;;;5.30;99.90;;;;;;5061625;28;1538;-73
2023/01/23 13:05:42;;;;;;;;;;;5.30;99.90;;;;;;5066708;28;1939;-74
2023/01/23 13:08:20;;;;;;;;;;;5.40;99.90;;;;;;5066566;28;1612;-73
2023/01/23 13:13:46;;;;;;;;;;;5.40;99.90;;;;;;5065434;28;974;-75
2023/01/23 13:16:18;;;;;;;;;;;5.50;99.90;;;;;;5071232;28;1304;-74
2023/01/23 13:27:40;;;;;;;;;;;5.50;99.90;;;;;;5020659;28;1589;-73
2023/01/23 13:30:24;;;;;;;;;;;5.60;99.90;;;;;;5015231;28;1918;-74
2023/01/23 13:32:55;;;;;;;;;;;5.70;99.90;;;;;;5038079;28;1148;-74
2023/01/23 13:35:43;;;;;;;;;;;5.70;99.90;;;;;;5070595;28;1344;-74
2023/01/23 13:38:30;;;;;;;;;;;5.80;99.90;;;;;;5063832;28;871;-75
2023/01/23 13:41:18;;;;;;;;;;;5.80;99.90;;;;;;5064168;28;1084;-75
2023/01/23 13:43:51;;;;;;;;;;;5.50;99.90;;;;;;5066500;28;1145;-74
2023/01/23 13:46:28;;;;;;;;;;;5.50;99.90;;;;;;5064511;28;1351;-74
2023/01/23 13:52:00;;;;;;;;;;;5.60;99.90;;;;;;4999861;28;1982;-74
2023/01/23 13:57:41;;;;;;;;;;;5.60;99.90;;;;;;4878155;29;1083;-73
2023/01/23 14:00:23;;;;;;;;;;;5.50;99.90;;;;;;4859664;29;1281;-73
2023/01/23 14:06:15;;;;;;;;;;;5.40;99.90;;;;;;4751010;30;1350;-72
2023/01/23 14:08:57;;;;;;;;;;;5.60;99.90;;;;;;4750561;30;1039;-73
2023/01/23 14:17:33;;;;;;;;;;;5.50;99.90;;;;;;4778011;30;1295;-74
2023/01/23 14:20:16;;;;;;;;;;;5.50;99.90;;;;;;4779997;30;1341;-73
2023/01/23 14:22:47;;;;;;;;;;;5.50;99.90;;;;;;4787877;29;1747;-73
2023/01/23 14:25:16;;;;;;;;;;;5.50;99.90;;;;;;4818851;29;1289;-73
2023/01/23 14:28:02;;;;;;;;;;;5.50;99.90;;;;;;4861558;29;1303;-73
2023/01/23 14:30:30;;;;;;;;;;;5.40;99.90;;;;;;4919300;29;2002;-74
2023/01/23 14:32:58;;;;;;;;;;;5.30;99.90;;;;;;4957414;28;1380;-70
2023/01/23 14:35:27;;;;;;;;;;;5.50;99.90;;;;;;4985301;28;1274;-73
2023/01/23 14:37:57;;;;;;;;;;;5.50;99.90;;;;;;4988375;28;1062;-73
2023/01/23 14:40:26;;;;;;;;;;;5.40;99.90;;;;;;5024806;28;1106;-73
2023/01/23 14:43:00;;;;;;;;;;;5.30;99.90;;;;;;5062706;28;1045;-73
2023/01/23 14:45:29;;;;;;;;;;;5.30;99.90;;;;;;5068254;28;1249;-73
2023/01/23 14:48:00;;;;;;;;;;;5.20;99.90;;;;;;5059692;28;998;-73
2023/01/23 14:50:35;;;;;;;;;;;5.10;99.90;;;;;;5062531;28;1997;-73
2023/01/23 14:53:05;;;;;;;;;;;5.30;99.90;;;;;;5064989;28;1037;-73
2023/01/23 14:55:36;;;;;;;;;;;5.20;99.90;;;;;;5069081;28;1927;-73
2023/01/23 14:58:06;;;;;;;;;;;5.40;99.90;;;;;;5064055;28;1001;-73
2023/01/23 15:00:35;;;;;;;;;;;5.40;99.90;;;;;;5067131;28;1586;-74
2023/01/23 15:03:03;;;;;;;;;;;5.40;99.90;;;;;;5070436;28;989;-73
2023/01/23 15:05:32;;;;;;;;;;;5.30;99.90;;;;;;5064017;28;1233;-73
2023/01/23 15:08:02;;;;;;;;;;;5.10;99.90;;;;;;5069706;28;1075;-73
2023/01/23 15:10:34;;;;;;;;;;;5.20;99.90;;;;;;5063743;28;1545;-73
2023/01/23 15:13:02;;;;;;;;;;;5.30;99.90;;;;;;5071892;28;1914;-73
2023/01/23 15:15:31;;;;;;;;;;;5.30;99.90;;;;;;5063917;28;1546;-74
2023/01/23 15:18:00;;;;;;;;;;;5.40;99.90;;;;;;5066977;28;1060;-73
2023/01/23 15:20:29;;;;;;;;;;;5.30;99.90;;;;;;5067423;28;1047;-74
2023/01/23 15:22:57;;;;;;;;;;;5.30;99.90;;;;;;5067666;28;969;-73
2023/01/23 15:25:28;;;;;;;;;;;5.50;99.90;;;;;;5062406;28;1295;-73
2023/01/23 15:27:57;;;;;;;;;;;5.40;99.90;;;;;;5061465;28;1018;-73
2023/01/23 15:30:29;;;;;;;;;;;5.40;99.90;;;;;;5068038;28;961;-73
2023/01/23 15:32:57;;;;;;;;;;;5.40;99.90;;;;;;5064871;28;1977;-73
2023/01/23 15:35:25;;;;;;;;;;;5.20;99.90;;;;;;5068023;28;1258;-73
2023/01/23 15:37:57;;;;;;;;;;;5.00;99.90;;;;;;5068798;28;1092;-74
2023/01/23 15:40:32;;;;;;;;;;;5.10;99.90;;;;;;5066265;28;1694;-73